createdAt,value
2019-03-08T00:01:35.730Z,63.00
2019-03-08T00:04:06.416Z,63.20
2019-03-08T00:06:37.010Z,63.10
2019-03-08T00:09:09.040Z,63.10
2019-03-08T00:11:39.748Z,63.70
2019-03-08T00:14:10.384Z,62.90
2019-03-08T00:16:41.264Z,63.40
2019-03-08T00:19:11.972Z,63.50
2019-03-08T00:21:42.597Z,63.60
2019-03-08T00:24:13.252Z,63.40
2019-03-08T00:26:43.813Z,63.60
2019-03-08T00:29:14.375Z,63.90
2019-03-08T00:31:44.933Z,63.70
2019-03-08T00:34:15.732Z,63.30
2019-03-08T00:36:46.567Z,63.60
2019-03-08T00:39:17.277Z,63.70
2019-03-08T00:41:47.958Z,63.90
2019-03-08T00:44:18.592Z,64.10
2019-03-08T00:46:49.323Z,64.60
2019-03-08T00:49:19.867Z,65.00
2019-03-08T00:51:50.945Z,64.90
2019-03-08T00:54:21.485Z,64.80
2019-03-08T00:56:52.164Z,65.20
2019-03-08T00:59:22.796Z,65.60
2019-03-08T01:01:53.459Z,66.00
2019-03-08T01:04:23.980Z,66.20
2019-03-08T01:06:54.612Z,66.30
2019-03-08T01:09:25.121Z,66.80
2019-03-08T01:11:55.889Z,67.10
2019-03-08T01:14:26.440Z,67.30
2019-03-08T01:16:57.713Z,67.60
2019-03-08T01:19:28.425Z,68.00
2019-03-08T01:21:59.112Z,68.20
2019-03-08T01:24:29.750Z,68.30
2019-03-08T01:27:00.304Z,68.60
2019-03-08T01:29:30.888Z,68.80
2019-03-08T01:32:01.426Z,69.10
2019-03-08T01:34:32.039Z,69.00
2019-03-08T01:37:02.726Z,69.00
2019-03-08T01:39:33.342Z,69.20
2019-03-08T01:42:03.875Z,69.30
2019-03-08T01:44:34.459Z,69.30
2019-03-08T01:47:05.641Z,69.30
2019-03-08T01:49:36.424Z,69.30
2019-03-08T01:52:06.948Z,69.40
2019-03-08T01:54:37.501Z,69.30
2019-03-08T01:57:08.060Z,69.50
2019-03-08T01:59:38.947Z,69.50
2019-03-08T02:02:10.520Z,69.60
2019-03-08T02:04:41.340Z,69.60
2019-03-08T02:07:11.981Z,69.40
2019-03-08T02:09:42.572Z,69.30
2019-03-08T02:12:13.253Z,69.40
2019-03-08T02:14:44.100Z,70.00
2019-03-08T02:17:14.754Z,70.20
2019-03-08T02:19:45.361Z,70.30
2019-03-08T02:22:15.974Z,70.30
2019-03-08T02:24:46.780Z,70.30
2019-03-08T02:27:17.408Z,70.60
2019-03-08T02:29:47.955Z,71.10
2019-03-08T02:32:18.570Z,71.30
2019-03-08T02:34:49.151Z,72.00
2019-03-08T02:37:20.100Z,71.80
2019-03-08T02:39:50.897Z,72.20
2019-03-08T02:42:21.468Z,72.30
2019-03-08T02:44:52.202Z,72.30
2019-03-08T02:47:22.771Z,72.60
2019-03-08T02:49:53.653Z,72.80
2019-03-08T02:52:24.259Z,72.80
2019-03-08T02:54:54.812Z,73.10
2019-03-08T02:57:25.468Z,73.30
2019-03-08T02:59:56.227Z,73.50
2019-03-08T03:02:26.857Z,74.00
2019-03-08T03:04:57.460Z,74.60
2019-03-08T03:07:28.305Z,75.10
2019-03-08T03:09:58.897Z,76.20
2019-03-08T03:12:29.744Z,76.70
2019-03-08T03:15:00.756Z,77.10
2019-03-08T03:17:31.393Z,77.80
2019-03-08T03:20:02.018Z,79.00
2019-03-08T03:22:32.620Z,79.80
2019-03-08T03:25:03.249Z,81.30
2019-03-08T03:27:34.073Z,83.60
2019-03-08T03:30:05.445Z,84.40
2019-03-08T03:32:35.966Z,84.00
2019-03-08T03:35:06.764Z,84.20
2019-03-08T03:37:37.364Z,84.30
2019-03-08T03:40:09.881Z,83.60
2019-03-08T03:42:40.430Z,84.10
2019-03-08T03:45:12.052Z,83.90
2019-03-08T03:47:42.604Z,84.00
2019-03-08T03:50:13.413Z,84.40
2019-03-08T03:52:44.361Z,85.30
2019-03-08T03:55:15.383Z,86.30
2019-03-08T03:57:45.923Z,87.00
2019-03-08T04:00:17.116Z,87.10
2019-03-08T04:02:47.940Z,87.00
2019-03-08T04:05:18.737Z,86.60
2019-03-08T04:07:49.265Z,85.60
2019-03-08T04:10:20.044Z,84.30
2019-03-08T04:12:51.555Z,83.60
2019-03-08T04:15:22.156Z,83.30
2019-03-08T04:17:52.797Z,83.00
2019-03-08T04:20:23.579Z,82.20
2019-03-08T04:22:54.211Z,81.60
2019-03-08T04:25:24.946Z,81.10
2019-03-08T04:27:55.552Z,81.20
2019-03-08T04:30:26.232Z,81.80
2019-03-08T04:32:56.765Z,81.50
2019-03-08T04:35:27.367Z,81.60
2019-03-08T04:37:58.119Z,81.30
2019-03-08T04:40:29.095Z,81.20
2019-03-08T04:42:59.823Z,81.50
2019-03-08T04:45:30.457Z,81.80
2019-03-08T04:48:00.966Z,80.80
2019-03-08T04:50:31.574Z,80.80
2019-03-08T04:53:02.144Z,81.40
2019-03-08T04:55:33.222Z,80.90
2019-03-08T04:58:03.809Z,81.20
2019-03-08T05:00:34.299Z,82.30
2019-03-08T05:03:04.843Z,81.10
2019-03-08T05:05:35.373Z,81.00
2019-03-08T05:08:06.612Z,81.10
2019-03-08T05:10:37.122Z,80.60
2019-03-08T05:13:07.664Z,80.70
2019-03-08T05:15:38.228Z,80.70
2019-03-08T05:18:08.742Z,80.70
2019-03-08T05:20:39.371Z,80.80
2019-03-08T05:23:10.228Z,80.50
2019-03-08T05:25:40.768Z,80.60
2019-03-08T05:28:11.322Z,80.30
2019-03-08T05:30:41.873Z,80.00
2019-03-08T05:33:12.376Z,79.90
2019-03-08T05:35:42.941Z,80.00
2019-03-08T05:38:13.454Z,80.20
2019-03-08T05:40:43.988Z,80.20
2019-03-08T05:43:14.535Z,79.50
2019-03-08T05:45:45.109Z,79.50
2019-03-08T05:48:15.631Z,80.10
2019-03-08T05:50:46.164Z,79.70
2019-03-08T05:53:16.767Z,79.50
2019-03-08T05:55:47.306Z,79.60
2019-03-08T05:58:17.869Z,79.40
2019-03-08T06:00:48.460Z,79.30
2019-03-08T06:03:19.235Z,79.20
2019-03-08T06:05:49.768Z,78.60
2019-03-08T06:08:20.300Z,78.30
2019-03-08T06:10:50.876Z,78.20
2019-03-08T06:13:21.808Z,78.10
2019-03-08T06:15:52.346Z,78.00
2019-03-08T06:18:22.832Z,78.20
2019-03-08T06:20:53.412Z,78.40
2019-03-08T06:23:24.088Z,78.40
2019-03-08T06:25:54.695Z,78.90
2019-03-08T06:28:25.272Z,79.20
2019-03-08T06:30:55.858Z,78.80
2019-03-08T06:33:26.767Z,78.80
2019-03-08T06:35:57.363Z,79.20
2019-03-08T06:38:28.212Z,80.60
2019-03-08T06:40:59.858Z,81.80
2019-03-08T06:43:30.419Z,82.80
2019-03-08T06:46:01.106Z,83.80
2019-03-08T06:48:31.651Z,85.40
2019-03-08T06:51:02.197Z,87.40
2019-03-08T06:53:32.962Z,88.90
2019-03-08T06:56:03.484Z,90.20
2019-03-08T06:59:02.495Z,90.90
2019-03-08T07:01:39.216Z,91.60
2019-03-08T07:04:09.807Z,91.90
2019-03-08T07:06:40.472Z,92.10
2019-03-08T07:09:10.988Z,92.20
2019-03-08T07:11:41.527Z,92.30
2019-03-08T07:14:12.233Z,91.90
2019-03-08T07:16:45.209Z,91.30
2019-03-08T07:19:15.925Z,90.70
2019-03-08T07:22:14.872Z,90.10
2019-03-08T07:25:03.397Z,88.80
2019-03-08T07:27:45.737Z,87.20
2019-03-08T07:30:34.204Z,87.10
2019-03-08T07:33:39.289Z,87.50
2019-03-08T07:36:16.862Z,87.60
2019-03-08T07:39:13.053Z,87.30
2019-03-08T07:42:09.320Z,86.20
2019-03-08T07:44:58.704Z,84.80
2019-03-08T07:47:37.769Z,83.70
2019-03-08T07:50:32.139Z,83.50
2019-03-08T07:53:34.405Z,83.40
2019-03-08T07:56:13.143Z,86.40
2019-03-08T07:58:57.498Z,89.20
2019-03-08T08:01:50.093Z,90.50
2019-03-08T08:04:36.312Z,91.10
2019-03-08T08:07:38.068Z,91.00
2019-03-08T08:10:37.192Z,91.20
2019-03-08T08:13:21.528Z,91.20
2019-03-08T08:16:26.931Z,90.50
2019-03-08T08:19:07.040Z,90.10
2019-03-08T08:21:46.844Z,89.40
2019-03-08T08:24:39.247Z,87.80
2019-03-08T08:27:22.628Z,87.10
2019-03-08T08:30:24.596Z,85.70
2019-03-08T08:33:12.142Z,83.80
2019-03-08T08:36:00.744Z,83.50
2019-03-08T08:38:56.538Z,82.80
2019-03-08T08:41:33.489Z,82.10
2019-03-08T08:44:32.461Z,82.10
2019-03-08T08:47:20.792Z,81.30
2019-03-08T08:50:19.454Z,81.10
2019-03-08T08:53:11.960Z,80.10
2019-03-08T08:56:00.217Z,79.10
2019-03-08T08:58:38.021Z,78.90
2019-03-08T09:01:18.549Z,77.40
2019-03-08T09:03:58.195Z,77.30
2019-03-08T09:06:47.053Z,76.20
2019-03-08T09:09:23.974Z,75.70
2019-03-08T09:12:09.000Z,74.10
2019-03-08T09:14:52.022Z,73.20
2019-03-08T09:17:43.912Z,73.20
2019-03-08T09:20:29.971Z,71.60
2019-03-08T09:23:06.396Z,69.50
2019-03-08T09:25:43.587Z,68.20
2019-03-08T09:28:39.097Z,66.10
2019-03-08T09:31:20.880Z,66.60
2019-03-08T09:34:17.276Z,61.10
2019-03-08T09:36:56.364Z,56.10
2019-03-08T09:39:43.104Z,53.90
2019-03-08T09:42:24.250Z,55.90
2019-03-08T09:45:04.069Z,58.10
2019-03-08T09:47:50.423Z,60.20
2019-03-08T09:50:42.899Z,60.50
2019-03-08T09:53:31.405Z,63.90
2019-03-08T09:56:09.761Z,67.70
2019-03-08T09:58:59.595Z,71.90
2019-03-08T10:01:48.352Z,74.30
2019-03-08T10:04:28.297Z,78.20
2019-03-08T10:07:07.658Z,79.20
2019-03-08T10:10:06.960Z,79.60
2019-03-08T10:12:46.909Z,81.60
2019-03-08T10:15:36.005Z,81.80
2019-03-08T10:18:32.035Z,82.00
2019-03-08T10:21:33.618Z,84.00
2019-03-08T10:24:26.294Z,81.90
2019-03-08T10:27:14.926Z,80.30
2019-03-08T10:29:55.030Z,75.20
2019-03-08T10:32:57.065Z,68.30
2019-03-08T10:35:55.802Z,67.80
2019-03-08T10:38:48.738Z,64.80
2019-03-08T10:41:38.546Z,63.90
2019-03-08T10:44:28.326Z,55.70
2019-03-08T10:47:20.844Z,40.10
2019-03-08T10:50:13.857Z,30.50
2019-03-08T10:52:49.769Z,25.80
2019-03-08T10:55:43.719Z,24.10
2019-03-08T10:58:33.384Z,22.50
2019-03-08T11:01:23.272Z,22.00
2019-03-08T11:04:00.586Z,24.70
2019-03-08T11:06:43.679Z,26.80
2019-03-08T11:09:35.356Z,29.00
2019-03-08T11:12:23.637Z,32.10
2019-03-08T11:15:23.907Z,33.20
2019-03-08T11:18:03.946Z,35.30
2019-03-08T11:20:52.380Z,37.50
2019-03-08T11:23:33.785Z,38.10
2019-03-08T11:26:18.776Z,37.60
2019-03-08T11:29:07.750Z,38.60
2019-03-08T11:31:50.301Z,41.40
2019-03-08T11:34:30.071Z,43.30
2019-03-08T11:37:07.352Z,46.10
2019-03-08T11:39:49.120Z,47.60
2019-03-08T11:42:31.971Z,47.90
2019-03-08T11:45:30.667Z,48.00
2019-03-08T11:48:08.965Z,48.50
2019-03-08T11:50:58.047Z,50.00
2019-03-08T11:53:45.826Z,49.40
2019-03-08T11:56:42.035Z,48.60
2019-03-08T11:59:30.368Z,47.90
2019-03-08T12:02:12.132Z,48.70
2019-03-08T12:05:20.254Z,49.60
2019-03-08T12:08:09.953Z,51.30
2019-03-08T12:10:51.509Z,52.40
2019-03-08T12:13:34.434Z,52.70
2019-03-08T12:16:19.266Z,52.20
2019-03-08T12:18:57.728Z,50.20
2019-03-08T12:21:47.572Z,48.90
2019-03-08T12:24:28.951Z,48.00
2019-03-08T12:27:12.622Z,48.20
2019-03-08T12:30:01.300Z,47.30
2019-03-08T12:32:37.496Z,46.60
2019-03-08T12:35:16.377Z,45.60
2019-03-08T12:38:21.474Z,46.00
2019-03-08T12:41:14.446Z,44.60
2019-03-08T12:44:08.943Z,44.00
2019-03-08T12:47:07.511Z,43.90
2019-03-08T12:49:48.587Z,43.70
2019-03-08T12:52:25.705Z,44.80
2019-03-08T12:55:08.174Z,45.50
2019-03-08T12:58:00.934Z,45.60
2019-03-08T13:00:38.432Z,45.60
2019-03-08T13:03:18.179Z,45.60
2019-03-08T13:06:06.095Z,45.80
2019-03-08T13:08:52.671Z,44.20
2019-03-08T13:11:23.364Z,43.30
2019-03-08T13:13:55.688Z,43.30
2019-03-08T13:16:26.277Z,43.30
2019-03-08T13:18:57.043Z,43.30
2019-03-08T13:21:27.799Z,43.30
2019-03-08T13:23:59.899Z,43.40
2019-03-08T13:26:30.864Z,43.60
2019-03-08T13:29:01.488Z,42.70
2019-03-08T13:31:32.289Z,40.90
2019-03-08T13:34:02.861Z,40.70
2019-03-08T13:36:33.510Z,42.20
2019-03-08T13:39:07.112Z,43.20
2019-03-08T13:41:38.001Z,44.90
2019-03-08T13:44:08.901Z,45.30
2019-03-08T13:46:39.480Z,46.00
2019-03-08T13:49:10.260Z,46.50
2019-03-08T13:51:41.058Z,46.40
2019-03-08T13:54:11.772Z,46.30
2019-03-08T13:56:42.400Z,46.70
2019-03-08T13:59:13.021Z,46.50
2019-03-08T14:01:43.648Z,45.90
2019-03-08T14:04:14.449Z,45.40
2019-03-08T14:06:45.144Z,45.60
2019-03-08T14:09:15.792Z,45.10
2019-03-08T14:11:46.420Z,45.10
2019-03-08T14:14:17.053Z,44.70
2019-03-08T14:16:48.097Z,45.30
2019-03-08T14:19:18.694Z,45.80
2019-03-08T14:21:49.537Z,45.80
2019-03-08T14:24:20.188Z,45.60
2019-03-08T14:26:50.868Z,45.60
2019-03-08T14:29:22.322Z,45.50
2019-03-08T14:31:59.195Z,46.00
2019-03-08T14:34:29.832Z,46.60
2019-03-08T14:37:00.521Z,47.30
2019-03-08T14:39:32.176Z,47.70
2019-03-08T14:42:10.753Z,47.30
2019-03-08T14:44:46.908Z,47.30
2019-03-08T14:47:24.201Z,47.10
2019-03-08T14:49:55.295Z,47.10
2019-03-08T14:52:27.616Z,46.90
2019-03-08T14:55:00.049Z,46.80
2019-03-08T14:57:30.885Z,46.60
2019-03-08T15:00:01.733Z,46.50
2019-03-08T15:02:32.329Z,47.00
2019-03-08T15:05:10.823Z,46.70
2019-03-08T15:07:37.230Z,46.10
2019-03-08T15:10:08.369Z,46.30
2019-03-08T15:12:48.299Z,46.60
2019-03-08T15:15:12.787Z,47.50
2019-03-08T15:17:43.602Z,48.10
2019-03-08T15:20:15.967Z,49.00
2019-03-08T15:22:47.632Z,48.60
2019-03-08T15:25:18.260Z,48.00
2019-03-08T15:27:48.939Z,46.90
2019-03-08T15:30:19.709Z,46.90
2019-03-08T15:32:50.353Z,47.40
2019-03-08T15:35:21.441Z,47.50
2019-03-08T15:37:52.059Z,48.10
2019-03-08T15:40:22.946Z,48.40
2019-03-08T15:42:53.629Z,49.20
2019-03-08T15:45:24.359Z,50.20
2019-03-08T15:47:54.964Z,52.10
2019-03-08T15:50:25.876Z,54.60
2019-03-08T15:52:56.535Z,59.50
2019-03-08T15:55:28.559Z,58.30
2019-03-08T15:57:59.475Z,59.00
2019-03-08T16:00:30.048Z,59.90
2019-03-08T16:03:00.790Z,60.00
2019-03-08T16:05:31.489Z,60.80
2019-03-08T16:08:03.709Z,60.80
2019-03-08T16:10:34.493Z,60.90
2019-03-08T16:13:05.320Z,61.60
2019-03-08T16:15:36.097Z,62.50
2019-03-08T16:18:06.944Z,62.90
2019-03-08T16:20:38.522Z,63.50
2019-03-08T16:23:09.280Z,64.30
2019-03-08T16:25:40.547Z,64.70
2019-03-08T16:28:12.238Z,65.50
2019-03-08T16:30:47.435Z,66.70
2019-03-08T16:33:20.634Z,73.00
2019-03-08T16:36:11.972Z,78.40
2019-03-08T16:38:57.724Z,79.20
2019-03-08T16:41:43.312Z,79.20
2019-03-08T16:44:20.540Z,79.90
2019-03-08T16:46:59.707Z,78.30
2019-03-08T16:49:54.989Z,79.60
2019-03-08T16:52:53.408Z,79.00
2019-03-08T16:55:34.021Z,79.90
2019-03-08T16:58:22.819Z,80.40
2019-03-08T17:01:05.699Z,81.20
2019-03-08T17:04:01.245Z,82.10
2019-03-08T17:06:42.788Z,83.40
2019-03-08T17:09:25.423Z,84.60
2019-03-08T17:12:14.094Z,85.10
2019-03-08T17:14:51.704Z,85.40
2019-03-08T17:17:34.372Z,86.50
2019-03-08T17:20:24.769Z,86.40
2019-03-08T17:23:03.390Z,87.10
2019-03-08T17:25:46.469Z,87.60
2019-03-08T17:28:22.158Z,87.50
2019-03-08T17:31:11.433Z,88.20
2019-03-08T17:34:01.109Z,88.80
2019-03-08T17:36:43.556Z,88.90
2019-03-08T17:39:22.864Z,89.20
2019-03-08T17:42:12.594Z,89.60
2019-03-08T17:45:01.235Z,89.30
2019-03-08T17:47:50.960Z,88.60
2019-03-08T17:50:40.657Z,88.90
2019-03-08T17:53:26.488Z,89.20
2019-03-08T17:56:04.364Z,90.00
2019-03-08T17:59:03.077Z,90.10
2019-03-08T18:02:08.206Z,89.90
2019-03-08T18:04:49.331Z,89.40
2019-03-08T18:07:32.669Z,88.70
2019-03-08T18:10:20.971Z,88.60
2019-03-08T18:13:16.753Z,88.80
2019-03-08T18:16:09.478Z,88.90
2019-03-08T18:18:57.754Z,89.20
2019-03-08T18:21:50.559Z,89.90
2019-03-08T18:24:39.835Z,90.10
2019-03-08T18:27:32.441Z,90.20
2019-03-08T18:30:24.957Z,90.40
2019-03-08T18:33:20.459Z,90.30
2019-03-08T18:36:10.406Z,90.10
2019-03-08T18:38:47.593Z,90.20
2019-03-08T18:41:33.715Z,90.20
2019-03-08T18:44:22.133Z,90.30
2019-03-08T18:47:11.781Z,90.10
2019-03-08T18:49:58.815Z,90.10
2019-03-08T18:52:54.695Z,90.00
2019-03-08T18:55:33.225Z,90.40
2019-03-08T18:58:14.192Z,89.30
2019-03-08T19:01:06.924Z,87.60
2019-03-08T19:03:58.079Z,86.50
2019-03-08T19:06:54.201Z,85.30
2019-03-08T19:09:38.759Z,85.20
2019-03-08T19:12:26.675Z,84.70
2019-03-08T19:15:19.092Z,84.00
2019-03-08T19:18:08.713Z,82.70
2019-03-08T19:20:48.434Z,82.30
2019-03-08T19:23:25.111Z,82.30
2019-03-08T19:26:13.706Z,82.50
2019-03-08T19:29:13.235Z,82.20
2019-03-08T19:31:51.463Z,81.90
2019-03-08T19:34:40.005Z,81.40
2019-03-08T19:37:19.942Z,81.20
2019-03-08T19:40:14.369Z,81.40
2019-03-08T19:43:02.905Z,81.30
2019-03-08T19:45:43.976Z,81.40
2019-03-08T19:48:22.286Z,81.20
2019-03-08T19:51:11.114Z,81.80
2019-03-08T19:54:02.854Z,81.40
2019-03-08T19:56:48.024Z,81.40
2019-03-08T19:59:40.849Z,81.10
2019-03-08T20:02:17.479Z,81.40
2019-03-08T20:05:06.249Z,81.20
2019-03-08T20:07:59.011Z,81.20
2019-03-08T20:10:51.940Z,81.40
2019-03-08T20:13:40.492Z,81.30
2019-03-08T20:16:23.812Z,81.20
2019-03-08T20:19:07.685Z,81.30
2019-03-08T20:21:53.024Z,81.40
2019-03-08T20:24:38.951Z,81.70
2019-03-08T20:27:27.576Z,81.70
2019-03-08T20:30:20.348Z,82.00
2019-03-08T20:33:06.261Z,82.30
2019-03-08T20:35:45.681Z,82.40
2019-03-08T20:38:45.030Z,82.40
2019-03-08T20:41:23.253Z,82.80
2019-03-08T20:43:58.284Z,83.20
2019-03-08T20:46:35.204Z,84.00
2019-03-08T20:49:06.411Z,83.30
2019-03-08T20:51:37.052Z,83.10
2019-03-08T20:54:07.798Z,83.00
2019-03-08T20:56:38.372Z,82.90
2019-03-08T20:59:09.193Z,82.60
2019-03-08T21:01:39.886Z,82.30
2019-03-08T21:04:10.455Z,82.20
2019-03-08T21:06:41.000Z,82.30
2019-03-08T21:09:11.573Z,83.00
2019-03-08T21:11:42.304Z,82.00
2019-03-08T21:14:13.525Z,82.20
2019-03-08T21:16:44.126Z,82.30
2019-03-08T21:19:14.789Z,82.30
2019-03-08T21:21:45.313Z,82.80
2019-03-08T21:24:15.909Z,82.20
2019-03-08T21:26:46.644Z,81.60
2019-03-08T21:29:17.311Z,81.30
2019-03-08T21:31:47.996Z,81.60
2019-03-08T21:34:18.708Z,81.70
2019-03-08T21:36:49.392Z,81.80
2019-03-08T21:39:20.052Z,82.10
2019-03-08T21:41:50.660Z,82.10
2019-03-08T21:44:21.324Z,82.10
2019-03-08T21:46:52.213Z,82.10
2019-03-08T21:49:22.869Z,81.80
2019-03-08T21:51:53.461Z,80.70
2019-03-08T21:54:24.145Z,80.90
2019-03-08T21:56:54.916Z,81.90
2019-03-08T21:59:25.545Z,83.90
2019-03-08T22:01:56.161Z,85.10
2019-03-08T22:04:37.969Z,87.00
2019-03-08T22:07:08.813Z,88.00
2019-03-08T22:09:47.090Z,88.50
2019-03-08T22:12:17.712Z,88.50
2019-03-08T22:14:48.438Z,89.10
2019-03-08T22:17:19.020Z,88.80
2019-03-08T22:19:49.604Z,89.10
2019-03-08T22:22:20.433Z,89.40
2019-03-08T22:24:51.206Z,89.80
2019-03-08T22:27:21.851Z,90.00
2019-03-08T22:29:52.578Z,90.20
2019-03-08T22:32:23.191Z,90.20
2019-03-08T22:34:53.897Z,90.10
2019-03-08T22:37:24.597Z,90.40
2019-03-08T22:39:55.218Z,90.00
2019-03-08T22:42:26.400Z,90.60
2019-03-08T22:44:56.984Z,90.00
2019-03-08T22:47:27.956Z,90.00
2019-03-08T22:49:58.520Z,89.80
2019-03-08T22:52:29.135Z,89.60
2019-03-08T22:55:03.440Z,89.50
2019-03-08T22:57:33.377Z,89.90
2019-03-08T23:00:06.785Z,89.50
2019-03-08T23:02:37.397Z,89.80
2019-03-08T23:05:08.372Z,87.40
2019-03-08T23:07:38.993Z,86.20
2019-03-08T23:10:11.211Z,85.70
2019-03-08T23:12:41.894Z,85.10
2019-03-08T23:15:12.535Z,85.20
2019-03-08T23:17:43.098Z,84.70
2019-03-08T23:20:13.840Z,85.00
2019-03-08T23:22:44.507Z,84.90
2019-03-08T23:25:15.096Z,84.70
2019-03-08T23:27:51.236Z,84.70
2019-03-08T23:30:28.508Z,84.50
2019-03-08T23:32:59.104Z,84.20
2019-03-08T23:35:29.768Z,83.60
2019-03-08T23:38:00.587Z,82.90
2019-03-08T23:40:31.159Z,83.50
2019-03-08T23:43:02.037Z,83.30
2019-03-08T23:45:32.718Z,83.00
2019-03-08T23:48:03.385Z,82.30
2019-03-08T23:50:33.984Z,82.40
2019-03-08T23:53:04.702Z,82.40
2019-03-08T23:55:35.352Z,82.50
2019-03-08T23:58:05.930Z,82.90
